Time,TemperatureF,DewpointF,PressureIn,WindDirection,WindDirectionDegrees,WindSpeedMPH,WindSpeedGustMPH,Humidity,HourlyPrecipIn,Conditions,Clouds,dailyrainin,SoftwareType,DateUTC
2013-01-16 00:03:00,33.6,24.0,30.24,NW,315,1.0,4.0,69,0.00,,,0.00,weatherlink.com 1.10,2013-01-16 05:03:00,
2013-01-16 00:18:00,33.6,24.0,30.24,WNW,293,1.0,3.0,68,0.00,,,0.00,weatherlink.com 1.10,2013-01-16 05:18:00,
2013-01-16 00:33:00,33.6,24.0,30.25,WNW,283,1.0,4.0,69,0.00,,,0.00,weatherlink.com 1.10,2013-01-16 05:33:00,
2013-01-16 00:48:00,33.6,24.0,30.25,NW,311,1.0,3.0,69,0.00,,,0.00,weatherlink.com 1.10,2013-01-16 05:48:00,
2013-01-16 01:03:00,33.4,24.0,30.24,NW,326,1.0,4.0,69,0.00,,,0.00,weatherlink.com 1.10,2013-01-16 06:03:00,
2013-01-16 01:18:00,33.3,24.0,30.24,NW,317,0.0,1.0,69,0.00,,,0.00,weatherlink.com 1.10,2013-01-16 06:18:00,
2013-01-16 01:33:00,33.3,24.0,30.23,ENE,76,1.0,1.0,69,0.00,,,0.00,weatherlink.com 1.10,2013-01-16 06:33:00,
2013-01-16 01:48:00,33.4,24.0,30.23,NNW,342,0.0,1.0,69,0.00,,,0.00,weatherlink.com 1.10,2013-01-16 06:48:00,
2013-01-16 02:03:00,33.4,24.0,30.23,NNW,344,1.0,1.0,69,0.00,,,0.00,weatherlink.com 1.10,2013-01-16 07:03:00,
2013-01-16 02:18:00,33.5,24.0,30.23,NW,321,0.0,3.0,68,0.00,,,0.00,weatherlink.com 1.10,2013-01-16 07:18:00,
2013-01-16 02:33:00,33.5,24.0,30.23,NW,318,0.0,2.0,69,0.00,,,0.00,weatherlink.com 1.10,2013-01-16 07:33:00,
2013-01-16 02:48:00,33.4,24.0,30.22,NW,321,1.0,3.0,69,0.00,,,0.00,weatherlink.com 1.10,2013-01-16 07:48:00,
2013-01-16 03:03:00,33.4,24.0,30.22,NNW,332,1.0,4.0,69,0.00,,,0.00,weatherlink.com 1.10,2013-01-16 08:03:00,
2013-01-16 03:18:00,32.8,25.0,30.21,NW,315,2.0,3.0,73,0.00,,,0.00,weatherlink.com 1.10,2013-01-16 08:18:00,
2013-01-16 03:33:00,32.0,26.0,30.20,North,4,0.0,3.0,78,0.00,,,0.00,weatherlink.com 1.10,2013-01-16 08:33:00,
2013-01-16 03:48:00,30.8,27.0,30.18,North,349,5.0,5.0,85,0.00,,,0.00,weatherlink.com 1.10,2013-01-16 08:48:00,
2013-01-16 04:03:00,30.1,27.0,30.18,NW,309,2.0,5.0,89,0.00,,,0.00,weatherlink.com 1.10,2013-01-16 09:03:00,
2013-01-16 04:18:00,29.7,27.0,30.18,WNW,300,2.0,4.0,91,0.00,,,0.00,weatherlink.com 1.10,2013-01-16 09:18:00,
2013-01-16 04:33:00,29.6,28.0,30.18,NW,307,2.0,3.0,92,0.00,,,0.00,weatherlink.com 1.10,2013-01-16 09:33:00,
2013-01-16 04:48:00,29.5,28.0,30.18,NNW,327,1.0,6.0,93,0.00,,,0.00,weatherlink.com 1.10,2013-01-16 09:48:00,
2013-01-16 05:04:00,29.4,28.0,30.16,NW,323,2.0,4.0,93,0.00,,,0.00,weatherlink.com 1.10,2013-01-16 10:04:00,
2013-01-16 05:19:00,29.3,28.0,30.15,North,1,0.0,4.0,94,0.00,,,0.00,weatherlink.com 1.10,2013-01-16 10:19:00,
2013-01-16 05:34:00,29.4,28.0,30.15,North,5,1.0,1.0,94,0.00,,,0.00,weatherlink.com 1.10,2013-01-16 10:34:00,
2013-01-16 05:49:00,29.5,28.0,30.14,NE,53,0.0,2.0,94,0.00,,,0.00,weatherlink.com 1.10,2013-01-16 10:49:00,
2013-01-16 06:04:00,29.5,28.0,30.13,WNW,292,1.0,3.0,94,0.00,,,0.00,weatherlink.com 1.10,2013-01-16 11:04:00,
2013-01-16 06:19:00,29.5,28.0,30.12,North,1,1.0,2.0,94,0.00,,,0.00,weatherlink.com 1.10,2013-01-16 11:19:00,
2013-01-16 06:34:00,29.5,28.0,30.12,NW,309,1.0,3.0,94,0.00,,,0.00,weatherlink.com 1.10,2013-01-16 11:34:00,
2013-01-16 06:49:00,29.5,28.0,30.12,NW,319,1.0,4.0,94,0.00,,,0.00,weatherlink.com 1.10,2013-01-16 11:49:00,
2013-01-16 07:04:00,29.4,28.0,30.11,NW,326,1.0,2.0,95,0.00,,,0.00,weatherlink.com 1.10,2013-01-16 12:04:00,
2013-01-16 07:19:00,29.4,28.0,30.11,NNW,330,2.0,4.0,95,0.00,,,0.00,weatherlink.com 1.10,2013-01-16 12:19:00,
2013-01-16 07:34:00,29.3,28.0,30.11,WNW,295,3.0,5.0,95,0.00,,,0.00,weatherlink.com 1.10,2013-01-16 12:34:00,
2013-01-16 07:49:00,29.2,28.0,30.10,NNE,18,4.0,6.0,95,0.00,,,0.00,weatherlink.com 1.10,2013-01-16 12:49:00,
2013-01-16 08:04:00,29.2,28.0,30.11,NNW,348,0.0,4.0,95,0.00,,,0.00,weatherlink.com 1.10,2013-01-16 13:04:00,
2013-01-16 08:19:00,29.3,28.0,30.10,WNW,303,0.0,2.0,95,0.00,,,0.00,weatherlink.com 1.10,2013-01-16 13:19:00,
2013-01-16 08:34:00,29.5,28.0,30.11,NE,41,0.0,1.0,95,0.00,,,0.00,weatherlink.com 1.10,2013-01-16 13:34:00,
2013-01-16 08:49:00,29.8,29.0,30.09,NNW,338,0.0,2.0,95,0.00,,,0.00,weatherlink.com 1.10,2013-01-16 13:49:00,
2013-01-16 09:04:00,30.0,29.0,30.08,North,5,0.0,2.0,95,0.00,,,0.00,weatherlink.com 1.10,2013-01-16 14:04:00,
2013-01-16 09:19:00,30.3,29.0,30.06,NE,45,1.0,1.0,95,0.00,,,0.00,weatherlink.com 1.10,2013-01-16 14:19:00,
2013-01-16 09:34:00,30.6,29.0,30.04,North,9,0.0,3.0,95,0.00,,,0.00,weatherlink.com 1.10,2013-01-16 14:34:00,
2013-01-16 09:49:00,30.9,29.0,30.02,NE,44,1.0,5.0,94,0.00,,,0.00,weatherlink.com 1.10,2013-01-16 14:49:00,
2013-01-16 10:04:00,31.1,30.0,30.01,NNE,18,1.0,3.0,94,0.00,,,0.00,weatherlink.com 1.10,2013-01-16 15:04:00,
2013-01-16 10:19:00,31.4,30.0,29.99,NNE,20,4.0,4.0,94,0.00,,,0.00,weatherlink.com 1.10,2013-01-16 15:19:00,
2013-01-16 10:34:00,31.5,30.0,29.97,East,98,1.0,3.0,94,0.00,,,0.00,weatherlink.com 1.10,2013-01-16 15:34:00,
2013-01-16 10:49:00,31.6,30.0,29.95,East,79,0.0,4.0,94,0.00,,,0.00,weatherlink.com 1.10,2013-01-16 15:49:00,
2013-01-16 11:04:00,31.8,30.0,29.95,NW,326,2.0,6.0,94,0.00,,,0.00,weatherlink.com 1.10,2013-01-16 16:04:00,
2013-01-16 11:19:00,31.7,31.0,29.96,NW,311,2.0,5.0,95,0.00,,,0.00,weatherlink.com 1.10,2013-01-16 16:19:00,
2013-01-16 11:34:00,31.6,30.0,29.96,NNW,333,2.0,7.0,95,0.00,,,0.00,weatherlink.com 1.10,2013-01-16 16:34:00,
2013-01-16 11:49:00,31.5,30.0,29.94,NNW,342,2.0,8.0,95,0.00,,,0.00,weatherlink.com 1.10,2013-01-16 16:49:00,
2013-01-16 12:04:00,31.4,30.0,29.94,WNW,300,4.0,5.0,95,0.00,,,0.00,weatherlink.com 1.10,2013-01-16 17:04:00,
2013-01-16 12:19:00,31.5,30.0,29.94,WNW,292,1.0,6.0,95,0.00,,,0.00,weatherlink.com 1.10,2013-01-16 17:19:00,
2013-01-16 12:34:00,31.5,30.0,29.93,West,262,1.0,9.0,95,0.00,,,0.00,weatherlink.com 1.10,2013-01-16 17:34:00,
2013-01-16 12:49:00,31.6,30.0,29.92,WNW,295,1.0,4.0,95,0.00,,,0.00,weatherlink.com 1.10,2013-01-16 17:49:00,
2013-01-16 13:04:00,31.6,30.0,29.93,NW,326,3.0,5.0,95,0.00,,,0.00,weatherlink.com 1.10,2013-01-16 18:04:00,
2013-01-16 13:19:00,31.6,30.0,29.92,WNW,291,1.0,6.0,95,0.00,,,0.00,weatherlink.com 1.10,2013-01-16 18:19:00,
2013-01-16 13:38:00,31.6,30.0,29.89,NW,308,0.0,3.0,95,0.00,,,0.00,weatherlink.com 1.10,2013-01-16 18:38:00,
2013-01-16 13:50:00,31.7,31.0,29.87,NNW,328,3.0,4.0,95,0.00,,,0.00,weatherlink.com 1.10,2013-01-16 18:50:00,
2013-01-16 14:05:00,31.7,31.0,29.84,North,1,2.0,3.0,95,0.00,,,0.00,weatherlink.com 1.10,2013-01-16 19:05:00,
2013-01-16 14:20:00,31.8,31.0,29.84,NW,323,4.0,4.0,95,0.00,,,0.00,weatherlink.com 1.10,2013-01-16 19:20:00,
2013-01-16 14:35:00,31.7,31.0,29.84,NW,319,3.0,10.0,95,0.00,,,0.00,weatherlink.com 1.10,2013-01-16 19:35:00,
2013-01-16 14:50:00,31.6,30.0,29.86,WNW,295,5.0,9.0,95,0.00,,,0.00,weatherlink.com 1.10,2013-01-16 19:50:00,
2013-01-16 15:05:00,31.7,31.0,29.85,NNW,331,1.0,9.0,96,0.00,,,0.00,weatherlink.com 1.10,2013-01-16 20:05:00,
2013-01-16 15:20:00,31.8,31.0,29.85,WNW,302,3.0,5.0,96,0.00,,,0.00,weatherlink.com 1.10,2013-01-16 20:20:00,
2013-01-16 15:35:00,31.8,31.0,29.86,NW,304,3.0,8.0,96,0.00,,,0.00,weatherlink.com 1.10,2013-01-16 20:35:00,
2013-01-16 15:50:00,31.8,31.0,29.85,NW,307,1.0,7.0,96,0.00,,,0.00,weatherlink.com 1.10,2013-01-16 20:50:00,
2013-01-16 16:20:00,31.8,31.0,29.87,NW,322,5.0,9.0,96,0.00,,,0.00,weatherlink.com 1.10,2013-01-16 21:20:00,
2013-01-16 16:35:00,31.8,31.0,29.88,West,259,0.0,5.0,96,0.00,,,0.00,weatherlink.com 1.10,2013-01-16 21:35:00,
2013-01-16 16:50:00,31.8,31.0,29.85,WNW,298,3.0,3.0,96,0.00,,,0.00,weatherlink.com 1.10,2013-01-16 21:50:00,
2013-01-16 17:05:00,31.8,31.0,29.88,WNW,292,2.0,5.0,96,0.00,,,0.00,weatherlink.com 1.10,2013-01-16 22:05:00,
2013-01-16 17:20:00,31.8,31.0,29.87,WNW,288,0.0,4.0,96,0.00,,,0.00,weatherlink.com 1.10,2013-01-16 22:20:00,
2013-01-16 17:35:00,31.7,31.0,29.87,WNW,288,1.0,3.0,96,0.00,,,0.00,weatherlink.com 1.10,2013-01-16 22:35:00,
2013-01-16 17:50:00,31.8,31.0,29.87,NW,308,2.0,3.0,96,0.00,,,0.00,weatherlink.com 1.10,2013-01-16 22:50:00,
2013-01-16 18:05:00,31.8,31.0,29.86,NW,306,1.0,2.0,96,0.00,,,0.00,weatherlink.com 1.10,2013-01-16 23:05:00,
2013-01-16 18:20:00,31.8,31.0,29.87,WNW,295,0.0,3.0,96,0.00,,,0.00,weatherlink.com 1.10,2013-01-16 23:20:00,
2013-01-16 18:35:00,31.8,31.0,29.86,NW,307,2.0,2.0,96,0.00,,,0.00,weatherlink.com 1.10,2013-01-16 23:35:00,
2013-01-16 18:50:00,31.8,31.0,29.86,West,266,0.0,1.0,96,0.00,,,0.00,weatherlink.com 1.10,2013-01-16 23:50:00,
2013-01-16 19:05:00,31.8,31.0,29.87,SW,225,0.0,2.0,96,0.00,,,0.00,weatherlink.com 1.10,2013-01-17 00:05:00,
2013-01-16 19:20:00,31.7,31.0,29.86,SW,225,0.0,1.0,96,0.00,,,0.00,weatherlink.com 1.10,2013-01-17 00:20:00,
2013-01-16 19:35:00,31.7,31.0,29.85,SW,224,0.0,0.0,96,0.00,,,0.00,weatherlink.com 1.10,2013-01-17 00:35:00,
2013-01-16 19:50:00,31.7,31.0,29.85,SSE,162,0.0,1.0,96,0.00,,,0.00,weatherlink.com 1.10,2013-01-17 00:50:00,
2013-01-16 20:05:00,31.7,31.0,29.86,West,259,0.0,2.0,96,0.00,,,0.00,weatherlink.com 1.10,2013-01-17 01:05:00,
2013-01-16 20:20:00,31.7,31.0,29.86,North,356,1.0,1.0,96,0.00,,,0.00,weatherlink.com 1.10,2013-01-17 01:20:00,
2013-01-16 20:35:00,31.8,31.0,29.86,NW,306,0.0,1.0,96,0.00,,,0.00,weatherlink.com 1.10,2013-01-17 01:35:00,
2013-01-16 20:50:00,31.9,31.0,29.86,NW,307,0.0,0.0,96,0.00,,,0.00,weatherlink.com 1.10,2013-01-17 01:50:00,
2013-01-16 21:05:00,32.0,31.0,29.86,NW,307,0.0,1.0,96,0.00,,,0.00,weatherlink.com 1.10,2013-01-17 02:05:00,
2013-01-16 21:20:00,32.0,31.0,29.86,NW,307,0.0,0.0,96,0.00,,,0.00,weatherlink.com 1.10,2013-01-17 02:20:00,
2013-01-16 21:35:00,32.0,31.0,29.86,NW,307,0.0,1.0,96,0.00,,,0.00,weatherlink.com 1.10,2013-01-17 02:35:00,
2013-01-16 21:50:00,32.0,31.0,29.86,SW,214,0.0,1.0,96,0.00,,,0.00,weatherlink.com 1.10,2013-01-17 02:50:00,
2013-01-16 22:05:00,32.4,31.0,29.87,West,281,3.0,6.0,96,0.00,,,0.00,weatherlink.com 1.10,2013-01-17 03:05:00,
2013-01-16 22:20:00,32.6,32.0,29.86,WSW,245,2.0,5.0,96,0.00,,,0.00,weatherlink.com 1.10,2013-01-17 03:20:00,
2013-01-16 22:35:00,32.7,32.0,29.86,WSW,245,1.0,7.0,96,0.00,,,0.00,weatherlink.com 1.10,2013-01-17 03:35:00,
2013-01-16 22:50:00,32.8,32.0,29.86,WSW,253,1.0,4.0,95,0.00,,,0.00,weatherlink.com 1.10,2013-01-17 03:50:00,
2013-01-16 23:05:00,32.8,32.0,29.86,West,273,1.0,4.0,95,0.00,,,0.00,weatherlink.com 1.10,2013-01-17 04:05:00,
2013-01-16 23:20:00,32.8,32.0,29.86,West,262,0.0,6.0,95,0.00,,,0.00,weatherlink.com 1.10,2013-01-17 04:20:00,
2013-01-16 23:35:00,32.8,32.0,29.87,SW,229,3.0,3.0,95,0.00,,,0.00,weatherlink.com 1.10,2013-01-17 04:35:00,
2013-01-16 23:50:00,32.8,32.0,29.86,West,264,4.0,5.0,95,0.00,,,0.00,weatherlink.com 1.10,2013-01-17 04:50:00,